Terminal Aerodrome Forecast
Issued by NWS Green Bay, WI

Home | Current Version | Previous Version | Graphics & Text | Print | Product List | Glossary On
Versions: 1 2 3 4 5 6 7 8 9 10 11 12 13 14 15
000
FTUS43 KGRB 211120
TAFGRB
TAF
KGRB 211120Z 2112/2212 29009KT P6SM SCT150
     FM211400 32011G16KT P6SM SCT150
     FM211600 35011G18KT P6SM SCT040
     FM220100 36009KT P6SM FEW035
     FM220500 01007KT P6SM SCT026=

USA.gov is the U.S. government's official web portal to all federal, state and local government web resources and services.